sensor_id;sensor_type;location;lat;lon;timestamp;temperature;humidity
78896;HTU21D;68284;59.124;37.910;2023-04-22T00:02:00;8.28;58.83
78896;HTU21D;68284;59.124;37.910;2023-04-22T00:04:27;8.23;58.94
78896;HTU21D;68284;59.124;37.910;2023-04-22T00:06:54;8.19;59.01
78896;HTU21D;68284;59.124;37.910;2023-04-22T00:09:21;8.17;59.06
78896;HTU21D;68284;59.124;37.910;2023-04-22T00:11:47;8.14;59.09
78896;HTU21D;68284;59.124;37.910;2023-04-22T00:14:13;8.12;59.10
78896;HTU21D;68284;59.124;37.910;2023-04-22T00:16:40;8.09;59.17
78896;HTU21D;68284;59.124;37.910;2023-04-22T00:19:06;8.08;59.22
78896;HTU21D;68284;59.124;37.910;2023-04-22T00:21:33;8.07;59.24
78896;HTU21D;68284;59.124;37.910;2023-04-22T00:23:59;8.06;59.25
78896;HTU21D;68284;59.124;37.910;2023-04-22T00:26:25;8.05;59.27
78896;HTU21D;68284;59.124;37.910;2023-04-22T00:28:52;8.03;59.30
78896;HTU21D;68284;59.124;37.910;2023-04-22T00:31:18;8.00;59.39
78896;HTU21D;68284;59.124;37.910;2023-04-22T00:33:44;7.99;59.44
78896;HTU21D;68284;59.124;37.910;2023-04-22T00:36:11;7.97;59.50
78896;HTU21D;68284;59.124;37.910;2023-04-22T00:38:40;7.94;59.57
78896;HTU21D;68284;59.124;37.910;2023-04-22T00:41:07;7.92;59.61
78896;HTU21D;68284;59.124;37.910;2023-04-22T00:43:34;7.92;59.63
78896;HTU21D;68284;59.124;37.910;2023-04-22T00:46:00;7.91;59.61
78896;HTU21D;68284;59.124;37.910;2023-04-22T00:48:27;7.90;59.32
78896;HTU21D;68284;59.124;37.910;2023-04-22T00:50:54;7.89;59.35
78896;HTU21D;68284;59.124;37.910;2023-04-22T00:53:21;7.88;59.41
78896;HTU21D;68284;59.124;37.910;2023-04-22T00:55:47;7.88;59.48
78896;HTU21D;68284;59.124;37.910;2023-04-22T00:58:16;7.88;59.54
78896;HTU21D;68284;59.124;37.910;2023-04-22T01:00:44;7.86;59.56
78896;HTU21D;68284;59.124;37.910;2023-04-22T01:03:11;7.85;59.62
78896;HTU21D;68284;59.124;37.910;2023-04-22T01:05:37;7.84;59.64
78896;HTU21D;68284;59.124;37.910;2023-04-22T01:08:04;7.83;59.37
78896;HTU21D;68284;59.124;37.910;2023-04-22T01:10:30;7.82;59.38
78896;HTU21D;68284;59.124;37.910;2023-04-22T01:12:57;7.81;59.18
78896;HTU21D;68284;59.124;37.910;2023-04-22T01:15:24;7.79;59.32
78896;HTU21D;68284;59.124;37.910;2023-04-22T01:17:52;7.78;59.45
78896;HTU21D;68284;59.124;37.910;2023-04-22T01:20:18;7.77;59.54
78896;HTU21D;68284;59.124;37.910;2023-04-22T01:22:47;7.76;59.67
78896;HTU21D;68284;59.124;37.910;2023-04-22T01:25:15;7.73;59.76
78896;HTU21D;68284;59.124;37.910;2023-04-22T01:27:43;7.72;59.85
78896;HTU21D;68284;59.124;37.910;2023-04-22T01:30:10;7.70;59.95
78896;HTU21D;68284;59.124;37.910;2023-04-22T01:32:39;7.67;60.05
78896;HTU21D;68284;59.124;37.910;2023-04-22T01:35:06;7.64;60.14
78896;HTU21D;68284;59.124;37.910;2023-04-22T01:37:33;7.63;60.23
78896;HTU21D;68284;59.124;37.910;2023-04-22T01:40:01;7.59;60.31
78896;HTU21D;68284;59.124;37.910;2023-04-22T01:42:27;7.58;60.41
78896;HTU21D;68284;59.124;37.910;2023-04-22T01:44:53;7.55;60.45
78896;HTU21D;68284;59.124;37.910;2023-04-22T01:47:20;7.53;60.24
78896;HTU21D;68284;59.124;37.910;2023-04-22T01:49:46;7.52;60.40
78896;HTU21D;68284;59.124;37.910;2023-04-22T01:52:12;7.50;60.53
78896;HTU21D;68284;59.124;37.910;2023-04-22T01:54:39;7.46;60.64
78896;HTU21D;68284;59.124;37.910;2023-04-22T01:57:11;7.44;60.84
78896;HTU21D;68284;59.124;37.910;2023-04-22T01:59:39;7.41;60.86
78896;HTU21D;68284;59.124;37.910;2023-04-22T02:02:05;7.37;60.66
78896;HTU21D;68284;59.124;37.910;2023-04-22T02:04:31;7.33;60.88
78896;HTU21D;68284;59.124;37.910;2023-04-22T02:06:58;7.32;61.05
78896;HTU21D;68284;59.124;37.910;2023-04-22T02:09:26;7.30;61.24
78896;HTU21D;68284;59.124;37.910;2023-04-22T02:11:52;7.30;61.35
78896;HTU21D;68284;59.124;37.910;2023-04-22T02:14:20;7.30;61.45
78896;HTU21D;68284;59.124;37.910;2023-04-22T02:16:46;7.29;61.56
78896;HTU21D;68284;59.124;37.910;2023-04-22T02:19:12;7.27;61.69
78896;HTU21D;68284;59.124;37.910;2023-04-22T02:21:39;7.28;61.74
78896;HTU21D;68284;59.124;37.910;2023-04-22T02:24:05;7.28;61.77
78896;HTU21D;68284;59.124;37.910;2023-04-22T02:26:31;7.28;61.77
78896;HTU21D;68284;59.124;37.910;2023-04-22T02:28:58;7.30;61.43
78896;HTU21D;68284;59.124;37.910;2023-04-22T02:31:26;7.31;61.45
78896;HTU21D;68284;59.124;37.910;2023-04-22T02:33:52;7.31;61.50
78896;HTU21D;68284;59.124;37.910;2023-04-22T02:36:19;7.32;61.51
78896;HTU21D;68284;59.124;37.910;2023-04-22T02:38:47;7.35;61.56
78896;HTU21D;68284;59.124;37.910;2023-04-22T02:41:14;7.38;61.60
78896;HTU21D;68284;59.124;37.910;2023-04-22T02:43:41;7.42;61.55
78896;HTU21D;68284;59.124;37.910;2023-04-22T02:46:12;7.46;61.54
78896;HTU21D;68284;59.124;37.910;2023-04-22T02:48:41;7.49;61.50
78896;HTU21D;68284;59.124;37.910;2023-04-22T02:51:09;7.55;61.52
78896;HTU21D;68284;59.124;37.910;2023-04-22T02:53:35;7.58;61.50
78896;HTU21D;68284;59.124;37.910;2023-04-22T02:56:02;7.64;61.23
78896;HTU21D;68284;59.124;37.910;2023-04-22T02:58:28;7.70;61.27
78896;HTU21D;68284;59.124;37.910;2023-04-22T03:00:55;7.76;61.35
78896;HTU21D;68284;59.124;37.910;2023-04-22T03:03:23;7.84;61.38
78896;HTU21D;68284;59.124;37.910;2023-04-22T03:05:49;7.91;61.34
78896;HTU21D;68284;59.124;37.910;2023-04-22T03:08:15;7.99;61.32
78896;HTU21D;68284;59.124;37.910;2023-04-22T03:10:42;8.06;61.25
78896;HTU21D;68284;59.124;37.910;2023-04-22T03:13:09;8.16;61.10
78896;HTU21D;68284;59.124;37.910;2023-04-22T03:15:35;8.27;60.94
78896;HTU21D;68284;59.124;37.910;2023-04-22T03:18:02;8.36;60.73
78896;HTU21D;68284;59.124;37.910;2023-04-22T03:20:28;8.45;60.58
78896;HTU21D;68284;59.124;37.910;2023-04-22T03:22:54;8.51;60.47
78896;HTU21D;68284;59.124;37.910;2023-04-22T03:25:21;8.59;60.40
78896;HTU21D;68284;59.124;37.910;2023-04-22T03:27:53;8.65;60.12
78896;HTU21D;68284;59.124;37.910;2023-04-22T03:30:19;8.68;59.99
78896;HTU21D;68284;59.124;37.910;2023-04-22T03:32:46;8.71;59.93
78896;HTU21D;68284;59.124;37.910;2023-04-22T03:35:36;8.72;59.83
78896;HTU21D;68284;59.124;37.910;2023-04-22T03:38:02;8.73;59.81
78896;HTU21D;68284;59.124;37.910;2023-04-22T03:40:32;8.77;59.77
78896;HTU21D;68284;59.124;37.910;2023-04-22T03:43:00;8.81;59.72
78896;HTU21D;68284;59.124;37.910;2023-04-22T03:45:29;8.87;59.66
78896;HTU21D;68284;59.124;37.910;2023-04-22T03:48:26;8.95;59.48
78896;HTU21D;68284;59.124;37.910;2023-04-22T03:50:56;9.03;59.35
78896;HTU21D;68284;59.124;37.910;2023-04-22T03:53:26;9.11;59.22
78896;HTU21D;68284;59.124;37.910;2023-04-22T03:55:52;9.21;59.06
78896;HTU21D;68284;59.124;37.910;2023-04-22T03:58:18;9.30;58.92
78896;HTU21D;68284;59.124;37.910;2023-04-22T04:00:46;9.40;58.80
78896;HTU21D;68284;59.124;37.910;2023-04-22T04:03:15;9.50;58.67
78896;HTU21D;68284;59.124;37.910;2023-04-22T04:05:43;9.61;58.53
78896;HTU21D;68284;59.124;37.910;2023-04-22T04:08:10;9.71;58.33
78896;HTU21D;68284;59.124;37.910;2023-04-22T04:10:36;9.83;58.15
78896;HTU21D;68284;59.124;37.910;2023-04-22T04:13:04;9.97;57.96
78896;HTU21D;68284;59.124;37.910;2023-04-22T04:15:38;10.10;57.67
78896;HTU21D;68284;59.124;37.910;2023-04-22T04:18:05;10.23;57.45
78896;HTU21D;68284;59.124;37.910;2023-04-22T04:20:32;10.34;57.31
78896;HTU21D;68284;59.124;37.910;2023-04-22T04:22:59;10.43;57.14
78896;HTU21D;68284;59.124;37.910;2023-04-22T04:25:26;10.54;56.93
78896;HTU21D;68284;59.124;37.910;2023-04-22T04:27:54;10.67;56.68
78896;HTU21D;68284;59.124;37.910;2023-04-22T04:30:21;10.80;56.48
78896;HTU21D;68284;59.124;37.910;2023-04-22T04:32:52;10.95;56.29
78896;HTU21D;68284;59.124;37.910;2023-04-22T04:35:19;11.10;56.00
78896;HTU21D;68284;59.124;37.910;2023-04-22T04:37:50;11.23;55.72
78896;HTU21D;68284;59.124;37.910;2023-04-22T04:40:19;11.36;55.45
78896;HTU21D;68284;59.124;37.910;2023-04-22T04:42:51;11.47;55.21
78896;HTU21D;68284;59.124;37.910;2023-04-22T04:45:22;11.61;54.99
78896;HTU21D;68284;59.124;37.910;2023-04-22T04:47:49;11.77;54.68
78896;HTU21D;68284;59.124;37.910;2023-04-22T04:50:22;11.93;54.36
78896;HTU21D;68284;59.124;37.910;2023-04-22T04:52:49;12.10;54.09
78896;HTU21D;68284;59.124;37.910;2023-04-22T04:55:19;12.21;53.70
78896;HTU21D;68284;59.124;37.910;2023-04-22T04:57:45;12.30;53.36
78896;HTU21D;68284;59.124;37.910;2023-04-22T05:00:13;12.34;52.91
78896;HTU21D;68284;59.124;37.910;2023-04-22T05:02:40;12.38;52.56
78896;HTU21D;68284;59.124;37.910;2023-04-22T05:05:07;12.44;52.31
78896;HTU21D;68284;59.124;37.910;2023-04-22T05:07:37;12.49;52.07
78896;HTU21D;68284;59.124;37.910;2023-04-22T05:10:06;12.52;51.89
78896;HTU21D;68284;59.124;37.910;2023-04-22T05:12:32;12.53;51.82
78896;HTU21D;68284;59.124;37.910;2023-04-22T05:15:00;12.56;51.76
78896;HTU21D;68284;59.124;37.910;2023-04-22T05:17:28;12.59;51.65
78896;HTU21D;68284;59.124;37.910;2023-04-22T05:19:54;12.66;51.54
78896;HTU21D;68284;59.124;37.910;2023-04-22T05:22:22;12.74;51.35
78896;HTU21D;68284;59.124;37.910;2023-04-22T05:24:48;12.84;51.18
78896;HTU21D;68284;59.124;37.910;2023-04-22T05:27:15;12.93;51.05
78896;HTU21D;68284;59.124;37.910;2023-04-22T05:29:41;12.99;50.98
78896;HTU21D;68284;59.124;37.910;2023-04-22T05:32:08;13.05;50.78
78896;HTU21D;68284;59.124;37.910;2023-04-22T05:34:35;13.15;50.63
78896;HTU21D;68284;59.124;37.910;2023-04-22T05:37:03;13.19;50.53
78896;HTU21D;68284;59.124;37.910;2023-04-22T05:39:31;13.24;50.47
78896;HTU21D;68284;59.124;37.910;2023-04-22T05:42:00;13.30;50.47
78896;HTU21D;68284;59.124;37.910;2023-04-22T05:44:27;13.34;50.50
78896;HTU21D;68284;59.124;37.910;2023-04-22T05:46:56;13.38;50.55
78896;HTU21D;68284;59.124;37.910;2023-04-22T05:49:25;13.43;50.54
78896;HTU21D;68284;59.124;37.910;2023-04-22T05:52:10;13.48;50.52
78896;HTU21D;68284;59.124;37.910;2023-04-22T05:54:50;13.56;50.52
78896;HTU21D;68284;59.124;37.910;2023-04-22T05:57:18;13.69;50.39
78896;HTU21D;68284;59.124;37.910;2023-04-22T05:59:45;13.84;50.14
78896;HTU21D;68284;59.124;37.910;2023-04-22T06:02:13;13.98;49.90
78896;HTU21D;68284;59.124;37.910;2023-04-22T06:05:30;14.13;49.66
78896;HTU21D;68284;59.124;37.910;2023-04-22T06:07:57;14.27;49.45
78896;HTU21D;68284;59.124;37.910;2023-04-22T06:10:24;14.40;49.10
78896;HTU21D;68284;59.124;37.910;2023-04-22T06:12:50;14.50;48.89
78896;HTU21D;68284;59.124;37.910;2023-04-22T06:15:16;14.53;48.76
78896;HTU21D;68284;59.124;37.910;2023-04-22T06:17:42;14.54;48.24
78896;HTU21D;68284;59.124;37.910;2023-04-22T06:20:10;14.53;47.77
78896;HTU21D;68284;59.124;37.910;2023-04-22T06:22:36;14.56;47.32
78896;HTU21D;68284;59.124;37.910;2023-04-22T06:25:03;14.57;47.01
78896;HTU21D;68284;59.124;37.910;2023-04-22T06:27:30;14.60;46.93
78896;HTU21D;68284;59.124;37.910;2023-04-22T06:30:00;14.62;46.51
78896;HTU21D;68284;59.124;37.910;2023-04-22T06:32:28;14.68;46.47
78896;HTU21D;68284;59.124;37.910;2023-04-22T06:34:54;14.80;46.00
78896;HTU21D;68284;59.124;37.910;2023-04-22T06:37:20;14.91;45.62
78896;HTU21D;68284;59.124;37.910;2023-04-22T06:39:47;15.02;45.48
78896;HTU21D;68284;59.124;37.910;2023-04-22T06:42:42;15.13;44.99
78896;HTU21D;68284;59.124;37.910;2023-04-22T06:45:28;15.23;44.42
78896;HTU21D;68284;59.124;37.910;2023-04-22T06:48:18;15.25;44.13
78896;HTU21D;68284;59.124;37.910;2023-04-22T06:51:05;15.27;44.00
78896;HTU21D;68284;59.124;37.910;2023-04-22T06:53:32;15.29;43.70
78896;HTU21D;68284;59.124;37.910;2023-04-22T06:55:59;15.31;43.47
78896;HTU21D;68284;59.124;37.910;2023-04-22T06:58:25;15.30;43.29
78896;HTU21D;68284;59.124;37.910;2023-04-22T07:00:53;15.29;43.15
78896;HTU21D;68284;59.124;37.910;2023-04-22T07:03:19;15.30;43.06
78896;HTU21D;68284;59.124;37.910;2023-04-22T07:05:55;15.31;42.96
78896;HTU21D;68284;59.124;37.910;2023-04-22T07:08:22;15.38;42.42
78896;HTU21D;68284;59.124;37.910;2023-04-22T07:10:49;15.47;42.07
78896;HTU21D;68284;59.124;37.910;2023-04-22T07:13:35;15.61;42.03
78896;HTU21D;68284;59.124;37.910;2023-04-22T07:16:01;15.75;41.58
78896;HTU21D;68284;59.124;37.910;2023-04-22T07:18:28;15.88;41.48
78896;HTU21D;68284;59.124;37.910;2023-04-22T07:20:55;15.99;41.00
78896;HTU21D;68284;59.124;37.910;2023-04-22T07:23:21;16.16;40.65
78896;HTU21D;68284;59.124;37.910;2023-04-22T07:25:47;16.32;40.21
78896;HTU21D;68284;59.124;37.910;2023-04-22T07:28:15;16.37;39.88
78896;HTU21D;68284;59.124;37.910;2023-04-22T07:30:42;16.44;39.86
78896;HTU21D;68284;59.124;37.910;2023-04-22T07:33:08;16.55;39.86
78896;HTU21D;68284;59.124;37.910;2023-04-22T07:35:35;16.64;39.94
78896;HTU21D;68284;59.124;37.910;2023-04-22T07:38:01;16.71;39.73
78896;HTU21D;68284;59.124;37.910;2023-04-22T07:40:27;16.76;39.46
78896;HTU21D;68284;59.124;37.910;2023-04-22T07:42:54;16.80;39.67
78896;HTU21D;68284;59.124;37.910;2023-04-22T07:45:20;16.90;39.29
78896;HTU21D;68284;59.124;37.910;2023-04-22T07:47:46;16.99;38.65
78896;HTU21D;68284;59.124;37.910;2023-04-22T07:50:12;17.00;38.91
78896;HTU21D;68284;59.124;37.910;2023-04-22T07:52:39;17.09;38.65
78896;HTU21D;68284;59.124;37.910;2023-04-22T07:55:06;17.22;38.43
78896;HTU21D;68284;59.124;37.910;2023-04-22T07:57:32;17.31;38.27
78896;HTU21D;68284;59.124;37.910;2023-04-22T08:00:07;17.32;38.16
78896;HTU21D;68284;59.124;37.910;2023-04-22T08:03:01;17.37;38.15
78896;HTU21D;68284;59.124;37.910;2023-04-22T08:05:27;17.36;38.08
78896;HTU21D;68284;59.124;37.910;2023-04-22T08:07:55;17.36;38.04
78896;HTU21D;68284;59.124;37.910;2023-04-22T08:10:21;17.28;38.02
78896;HTU21D;68284;59.124;37.910;2023-04-22T08:12:47;17.22;38.20
78896;HTU21D;68284;59.124;37.910;2023-04-22T08:15:14;17.20;38.34
78896;HTU21D;68284;59.124;37.910;2023-04-22T08:17:41;17.23;38.46
78896;HTU21D;68284;59.124;37.910;2023-04-22T08:20:08;17.30;38.53
78896;HTU21D;68284;59.124;37.910;2023-04-22T08:22:35;17.37;38.56
78896;HTU21D;68284;59.124;37.910;2023-04-22T08:25:01;17.45;38.36
78896;HTU21D;68284;59.124;37.910;2023-04-22T08:27:28;17.47;38.33
78896;HTU21D;68284;59.124;37.910;2023-04-22T08:29:55;17.48;38.20
78896;HTU21D;68284;59.124;37.910;2023-04-22T08:32:21;17.49;38.15
78896;HTU21D;68284;59.124;37.910;2023-04-22T08:34:51;17.53;37.91
78896;HTU21D;68284;59.124;37.910;2023-04-22T08:37:18;17.52;37.72
78896;HTU21D;68284;59.124;37.910;2023-04-22T08:39:45;17.48;37.85
78896;HTU21D;68284;59.124;37.910;2023-04-22T08:42:14;17.51;37.79
78896;HTU21D;68284;59.124;37.910;2023-04-22T08:44:40;17.55;37.74
78896;HTU21D;68284;59.124;37.910;2023-04-22T08:47:08;17.60;37.62
78896;HTU21D;68284;59.124;37.910;2023-04-22T08:49:34;17.67;37.39
78896;HTU21D;68284;59.124;37.910;2023-04-22T08:52:01;17.70;37.14
78896;HTU21D;68284;59.124;37.910;2023-04-22T08:54:28;17.66;36.93
78896;HTU21D;68284;59.124;37.910;2023-04-22T08:56:55;17.59;36.92
78896;HTU21D;68284;59.124;37.910;2023-04-22T08:59:22;17.50;36.76
78896;HTU21D;68284;59.124;37.910;2023-04-22T09:01:51;17.49;36.79
78896;HTU21D;68284;59.124;37.910;2023-04-22T09:04:19;17.59;36.54
78896;HTU21D;68284;59.124;37.910;2023-04-22T09:06:45;17.65;36.39
78896;HTU21D;68284;59.124;37.910;2023-04-22T09:09:11;17.74;36.18
78896;HTU21D;68284;59.124;37.910;2023-04-22T09:11:38;17.80;36.08
78896;HTU21D;68284;59.124;37.910;2023-04-22T09:14:06;17.89;35.95
78896;HTU21D;68284;59.124;37.910;2023-04-22T09:16:40;17.92;35.84
78896;HTU21D;68284;59.124;37.910;2023-04-22T09:19:12;17.92;35.68
78896;HTU21D;68284;59.124;37.910;2023-04-22T09:21:40;17.90;35.72
78896;HTU21D;68284;59.124;37.910;2023-04-22T09:24:10;17.87;35.85
78896;HTU21D;68284;59.124;37.910;2023-04-22T09:26:41;17.84;35.80
78896;HTU21D;68284;59.124;37.910;2023-04-22T09:29:13;17.79;35.79
78896;HTU21D;68284;59.124;37.910;2023-04-22T09:31:40;17.79;35.79
78896;HTU21D;68284;59.124;37.910;2023-04-22T09:34:07;17.81;35.54
78896;HTU21D;68284;59.124;37.910;2023-04-22T09:36:35;17.85;35.56
78896;HTU21D;68284;59.124;37.910;2023-04-22T09:39:06;17.94;35.79
78896;HTU21D;68284;59.124;37.910;2023-04-22T09:41:35;18.07;35.59
78896;HTU21D;68284;59.124;37.910;2023-04-22T09:44:08;18.14;35.93
78896;HTU21D;68284;59.124;37.910;2023-04-22T09:46:34;18.23;35.31
78896;HTU21D;68284;59.124;37.910;2023-04-22T09:49:01;18.18;35.00
78896;HTU21D;68284;59.124;37.910;2023-04-22T09:51:29;18.05;34.91
78896;HTU21D;68284;59.124;37.910;2023-04-22T09:53:57;17.92;35.04
78896;HTU21D;68284;59.124;37.910;2023-04-22T09:56:47;17.77;34.59
78896;HTU21D;68284;59.124;37.910;2023-04-22T09:59:18;17.60;34.95
78896;HTU21D;68284;59.124;37.910;2023-04-22T10:01:45;17.50;35.31
78896;HTU21D;68284;59.124;37.910;2023-04-22T10:04:12;17.48;35.15
78896;HTU21D;68284;59.124;37.910;2023-04-22T10:06:41;17.41;35.17
78896;HTU21D;68284;59.124;37.910;2023-04-22T10:09:08;17.38;35.28
78896;HTU21D;68284;59.124;37.910;2023-04-22T10:11:35;17.41;35.33
78896;HTU21D;68284;59.124;37.910;2023-04-22T10:14:02;17.48;35.21
78896;HTU21D;68284;59.124;37.910;2023-04-22T10:16:31;17.56;35.11
78896;HTU21D;68284;59.124;37.910;2023-04-22T10:19:02;17.74;34.60
78896;HTU21D;68284;59.124;37.910;2023-04-22T10:21:30;17.87;34.03
78896;HTU21D;68284;59.124;37.910;2023-04-22T10:23:59;17.98;33.59
78896;HTU21D;68284;59.124;37.910;2023-04-22T10:26:49;18.11;33.25
78896;HTU21D;68284;59.124;37.910;2023-04-22T10:29:20;18.32;32.87
78896;HTU21D;68284;59.124;37.910;2023-04-22T10:32:07;18.54;32.64
78896;HTU21D;68284;59.124;37.910;2023-04-22T10:35:07;18.93;31.80
78896;HTU21D;68284;59.124;37.910;2023-04-22T10:37:59;19.23;31.43
78896;HTU21D;68284;59.124;37.910;2023-04-22T10:40:26;19.46;31.97
78896;HTU21D;68284;59.124;37.910;2023-04-22T10:42:57;19.83;30.87
78896;HTU21D;68284;59.124;37.910;2023-04-22T10:45:31;20.21;29.98
78896;HTU21D;68284;59.124;37.910;2023-04-22T10:48:02;20.57;29.16
78896;HTU21D;68284;59.124;37.910;2023-04-22T10:50:31;20.84;28.65
78896;HTU21D;68284;59.124;37.910;2023-04-22T10:53:35;21.22;28.00
78896;HTU21D;68284;59.124;37.910;2023-04-22T10:56:15;21.52;27.52
78896;HTU21D;68284;59.124;37.910;2023-04-22T10:58:43;21.83;27.30
78896;HTU21D;68284;59.124;37.910;2023-04-22T11:01:16;22.22;26.46
78896;HTU21D;68284;59.124;37.910;2023-04-22T11:03:46;22.57;25.98
78896;HTU21D;68284;59.124;37.910;2023-04-22T11:06:20;22.95;25.31
78896;HTU21D;68284;59.124;37.910;2023-04-22T11:09:10;23.41;24.65
78896;HTU21D;68284;59.124;37.910;2023-04-22T11:11:43;23.77;24.30
78896;HTU21D;68284;59.124;37.910;2023-04-22T11:14:11;24.16;23.68
78896;HTU21D;68284;59.124;37.910;2023-04-22T11:16:45;24.42;23.07
78896;HTU21D;68284;59.124;37.910;2023-04-22T11:19:20;24.42;22.95
78896;HTU21D;68284;59.124;37.910;2023-04-22T11:21:49;24.36;23.66
78896;HTU21D;68284;59.124;37.910;2023-04-22T11:24:19;24.41;23.34
78896;HTU21D;68284;59.124;37.910;2023-04-22T11:26:46;24.24;22.82
78896;HTU21D;68284;59.124;37.910;2023-04-22T11:29:14;23.86;22.72
78896;HTU21D;68284;59.124;37.910;2023-04-22T11:32:15;23.85;22.80
78896;HTU21D;68284;59.124;37.910;2023-04-22T11:35:22;23.86;22.90
78896;HTU21D;68284;59.124;37.910;2023-04-22T11:38:07;23.82;23.01
78896;HTU21D;68284;59.124;37.910;2023-04-22T11:40:38;23.71;22.86
78896;HTU21D;68284;59.124;37.910;2023-04-22T11:43:08;23.42;22.95
78896;HTU21D;68284;59.124;37.910;2023-04-22T11:45:35;22.99;23.29
78896;HTU21D;68284;59.124;37.910;2023-04-22T11:48:03;22.67;23.72
78896;HTU21D;68284;59.124;37.910;2023-04-22T11:50:32;22.77;23.79
78896;HTU21D;68284;59.124;37.910;2023-04-22T11:53:03;23.01;23.89
78896;HTU21D;68284;59.124;37.910;2023-04-22T11:55:32;23.02;23.54
78896;HTU21D;68284;59.124;37.910;2023-04-22T12:00:34;22.42;23.92
78896;HTU21D;68284;59.124;37.910;2023-04-22T12:03:04;22.05;24.30
78896;HTU21D;68284;59.124;37.910;2023-04-22T12:05:35;21.77;24.72
78896;HTU21D;68284;59.124;37.910;2023-04-22T12:08:06;21.62;25.01
78896;HTU21D;68284;59.124;37.910;2023-04-22T12:10:38;22.20;24.81
78896;HTU21D;68284;59.124;37.910;2023-04-22T12:13:05;23.08;24.17
78896;HTU21D;68284;59.124;37.910;2023-04-22T12:15:39;23.99;23.17
78896;HTU21D;68284;59.124;37.910;2023-04-22T12:18:06;24.44;22.64
78896;HTU21D;68284;59.124;37.910;2023-04-22T12:20:38;24.33;22.34
78896;HTU21D;68284;59.124;37.910;2023-04-22T12:23:05;24.35;22.40
78896;HTU21D;68284;59.124;37.910;2023-04-22T12:25:36;25.03;21.89
78896;HTU21D;68284;59.124;37.910;2023-04-22T12:28:02;25.87;21.27
78896;HTU21D;68284;59.124;37.910;2023-04-22T12:30:28;26.66;20.51
78896;HTU21D;68284;59.124;37.910;2023-04-22T12:32:56;27.34;19.48
78896;HTU21D;68284;59.124;37.910;2023-04-22T12:35:22;27.36;18.99
78896;HTU21D;68284;59.124;37.910;2023-04-22T12:37:48;27.31;18.92
78896;HTU21D;68284;59.124;37.910;2023-04-22T12:40:14;27.24;19.05
78896;HTU21D;68284;59.124;37.910;2023-04-22T12:42:41;27.00;19.33
78896;HTU21D;68284;59.124;37.910;2023-04-22T12:45:08;27.27;18.87
78896;HTU21D;68284;59.124;37.910;2023-04-22T12:47:34;27.83;18.60
78896;HTU21D;68284;59.124;37.910;2023-04-22T12:50:01;28.33;17.86
78896;HTU21D;68284;59.124;37.910;2023-04-22T12:52:33;28.32;17.67
78896;HTU21D;68284;59.124;37.910;2023-04-22T12:54:59;28.04;17.76
78896;HTU21D;68284;59.124;37.910;2023-04-22T12:57:26;27.72;17.84
78896;HTU21D;68284;59.124;37.910;2023-04-22T13:00:12;27.37;18.15
78896;HTU21D;68284;59.124;37.910;2023-04-22T13:02:43;27.25;18.28
78896;HTU21D;68284;59.124;37.910;2023-04-22T13:05:12;27.35;18.28
78896;HTU21D;68284;59.124;37.910;2023-04-22T13:07:39;27.50;18.15
78896;HTU21D;68284;59.124;37.910;2023-04-22T13:10:06;27.41;18.23
78896;HTU21D;68284;59.124;37.910;2023-04-22T13:12:33;26.85;18.55
78896;HTU21D;68284;59.124;37.910;2023-04-22T13:15:00;26.53;18.90
78896;HTU21D;68284;59.124;37.910;2023-04-22T13:17:27;26.08;19.12
78896;HTU21D;68284;59.124;37.910;2023-04-22T13:19:54;25.83;19.28
78896;HTU21D;68284;59.124;37.910;2023-04-22T13:22:20;26.35;19.07
78896;HTU21D;68284;59.124;37.910;2023-04-22T13:24:47;26.58;18.83
78896;HTU21D;68284;59.124;37.910;2023-04-22T13:27:13;26.21;18.99
78896;HTU21D;68284;59.124;37.910;2023-04-22T13:29:41;25.51;19.47
78896;HTU21D;68284;59.124;37.910;2023-04-22T13:32:08;24.77;20.13
78896;HTU21D;68284;59.124;37.910;2023-04-22T13:34:34;24.20;20.75
78896;HTU21D;68284;59.124;37.910;2023-04-22T13:37:01;23.88;21.19
78896;HTU21D;68284;59.124;37.910;2023-04-22T13:39:28;23.81;21.37
78896;HTU21D;68284;59.124;37.910;2023-04-22T13:41:54;23.70;21.57
78896;HTU21D;68284;59.124;37.910;2023-04-22T13:44:21;23.49;21.82
78896;HTU21D;68284;59.124;37.910;2023-04-22T13:46:48;23.34;22.21
78896;HTU21D;68284;59.124;37.910;2023-04-22T13:49:14;24.05;21.81
78896;HTU21D;68284;59.124;37.910;2023-04-22T13:51:41;25.17;20.92
78896;HTU21D;68284;59.124;37.910;2023-04-22T13:54:07;26.30;19.92
78896;HTU21D;68284;59.124;37.910;2023-04-22T13:56:34;27.04;19.28
78896;HTU21D;68284;59.124;37.910;2023-04-22T13:59:01;27.46;18.89
78896;HTU21D;68284;59.124;37.910;2023-04-22T14:01:27;27.22;19.01
78896;HTU21D;68284;59.124;37.910;2023-04-22T14:03:53;27.09;19.04
78896;HTU21D;68284;59.124;37.910;2023-04-22T14:06:20;27.13;18.96
78896;HTU21D;68284;59.124;37.910;2023-04-22T14:08:47;26.89;19.10
78896;HTU21D;68284;59.124;37.910;2023-04-22T14:11:13;26.41;19.57
78896;HTU21D;68284;59.124;37.910;2023-04-22T14:13:39;26.55;19.53
78896;HTU21D;68284;59.124;37.910;2023-04-22T14:16:06;26.79;19.38
78896;HTU21D;68284;59.124;37.910;2023-04-22T14:18:37;26.40;19.73
78896;HTU21D;68284;59.124;37.910;2023-04-22T14:21:05;26.13;20.04
78896;HTU21D;68284;59.124;37.910;2023-04-22T14:23:32;26.55;19.80
78896;HTU21D;68284;59.124;37.910;2023-04-22T14:25:58;26.97;19.52
78896;HTU21D;68284;59.124;37.910;2023-04-22T14:28:25;27.21;19.28
78896;HTU21D;68284;59.124;37.910;2023-04-22T14:30:53;27.70;18.85
78896;HTU21D;68284;59.124;37.910;2023-04-22T14:33:20;28.04;18.53
78896;HTU21D;68284;59.124;37.910;2023-04-22T14:35:50;28.24;18.28
78896;HTU21D;68284;59.124;37.910;2023-04-22T14:38:17;28.06;18.31
78896;HTU21D;68284;59.124;37.910;2023-04-22T14:40:43;27.86;18.49
78896;HTU21D;68284;59.124;37.910;2023-04-22T14:43:10;28.06;18.37
78896;HTU21D;68284;59.124;37.910;2023-04-22T14:45:36;28.50;18.06
78896;HTU21D;68284;59.124;37.910;2023-04-22T14:48:02;29.06;17.70
78896;HTU21D;68284;59.124;37.910;2023-04-22T14:50:28;29.37;17.48
78896;HTU21D;68284;59.124;37.910;2023-04-22T14:52:55;29.70;17.31
78896;HTU21D;68284;59.124;37.910;2023-04-22T14:55:21;29.93;17.10
78896;HTU21D;68284;59.124;37.910;2023-04-22T14:57:50;30.10;16.90
78896;HTU21D;68284;59.124;37.910;2023-04-22T15:00:17;30.07;16.88
78896;HTU21D;68284;59.124;37.910;2023-04-22T15:02:43;30.04;16.95
78896;HTU21D;68284;59.124;37.910;2023-04-22T15:05:10;30.16;16.95
78896;HTU21D;68284;59.124;37.910;2023-04-22T15:07:36;30.26;16.77
78896;HTU21D;68284;59.124;37.910;2023-04-22T15:10:03;30.34;16.65
78896;HTU21D;68284;59.124;37.910;2023-04-22T15:12:29;30.13;16.67
78896;HTU21D;68284;59.124;37.910;2023-04-22T15:14:55;29.48;17.11
78896;HTU21D;68284;59.124;37.910;2023-04-22T15:17:21;28.94;17.64
78896;HTU21D;68284;59.124;37.910;2023-04-22T15:19:48;28.83;17.71